Alvin, Wisconsin
Current Conditions -  °F | °C
As of 4:15 PM on Thursday 23 Oct 2014 (Local Time) from KEGV Reporting Station
Haze Haze  
Wind Chill: 45°   Ceiling: 500
Heat Index: 45°   Visibility: 5mi
Dew Point: 45°   Wind: 0mph
Humidity: 100%   Direction: NA
Pressure: 30"   Gusts: NA
Location:  45.9186°N, 88.7601°W
Report Text: KEGV 232115Z AUTO 00000KT 5SM BR OVC005 07/07 A3000 RMK AO2 T00700070
Loading
Personal Weather Stations






























Interactive Weather Map
Tropical Storm Tracking
New forecast layout! Learn more

10-Day Weather Forecast

Advertisements
Track Severe Weather on mobile